Time;durP1;ratioP1;P1;durP2;ratioP2;P2;SDS_P1;SDS_P2;PMS_P1;PMS_P2;Temp;Humidity;BMP_temperature;BMP_pressure;BME280_temperature;BME280_humidity;BME280_pressure;Samples;Min_cycle;Max_cycle;Signal;HPM_P1;HPM_P2
2022/07/18 00:00:10;;;;;;;;;;;27.40;99.90;;;;;;5114408;28;19904;-71
2022/07/18 00:02:36;;;;;;;;;;;27.30;99.90;;;;;;5114600;28;19938;-71
2022/07/18 00:05:02;;;;;;;;;;;27.30;99.90;;;;;;5114314;28;19976;-71
2022/07/18 00:07:28;;;;;;;;;;;27.20;99.90;;;;;;5114441;28;20007;-71
2022/07/18 00:09:54;;;;;;;;;;;27.20;99.90;;;;;;5114198;28;19939;-71
2022/07/18 00:12:19;;;;;;;;;;;27.10;99.90;;;;;;5114543;28;20021;-71
2022/07/18 00:14:45;;;;;;;;;;;27.10;99.90;;;;;;5114178;28;19937;-71
2022/07/18 00:17:11;;;;;;;;;;;27.00;99.90;;;;;;5113965;28;20273;-71
2022/07/18 00:19:38;;;;;;;;;;;27.00;99.90;;;;;;5114040;28;19934;-71
2022/07/18 00:22:04;;;;;;;;;;;27.10;99.90;;;;;;5114389;27;19904;-72
2022/07/18 00:24:31;;;;;;;;;;;27.00;99.90;;;;;;5114020;28;20263;-71
2022/07/18 00:26:57;;;;;;;;;;;27.00;99.90;;;;;;5113931;28;19911;-71
2022/07/18 00:29:24;;;;;;;;;;;27.00;99.90;;;;;;5114385;28;19903;-71
2022/07/18 00:31:49;;;;;;;;;;;27.00;99.80;;;;;;5113680;28;20433;-71
2022/07/18 00:34:15;;;;;;;;;;;27.00;99.90;;;;;;5112211;28;19995;-71
2022/07/18 00:36:41;;;;;;;;;;;27.00;99.90;;;;;;5112338;28;19903;-71
2022/07/18 00:39:07;;;;;;;;;;;27.00;99.90;;;;;;5113770;28;19908;-71
2022/07/18 00:41:33;;;;;;;;;;;27.00;99.60;;;;;;5114326;28;20294;-71
2022/07/18 00:43:59;;;;;;;;;;;27.00;99.50;;;;;;5113784;28;19955;-71
2022/07/18 00:46:26;;;;;;;;;;;27.00;99.50;;;;;;5113704;28;19904;-71
2022/07/18 00:48:52;;;;;;;;;;;27.00;99.40;;;;;;5113545;28;20419;-71
2022/07/18 00:51:18;;;;;;;;;;;26.90;99.40;;;;;;5113523;28;20271;-71
2022/07/18 00:53:45;;;;;;;;;;;26.90;99.40;;;;;;5113327;28;19930;-71
2022/07/18 00:56:11;;;;;;;;;;;26.80;99.60;;;;;;5113500;28;20056;-71
2022/07/18 00:58:37;;;;;;;;;;;26.80;99.40;;;;;;5113252;28;20390;-71
2022/07/18 01:03:48;;;;;;;;;;;26.60;99.50;;;;;;5113503;28;20021;-71
2022/07/18 01:06:14;;;;;;;;;;;26.60;99.60;;;;;;5113690;28;19913;-71
2022/07/18 01:08:41;;;;;;;;;;;26.60;99.50;;;;;;5113334;28;19995;-71
2022/07/18 01:11:07;;;;;;;;;;;26.60;99.40;;;;;;5113108;28;19908;-71
2022/07/18 01:13:33;;;;;;;;;;;26.50;99.50;;;;;;5113097;28;19968;-71
2022/07/18 01:15:59;;;;;;;;;;;26.50;99.50;;;;;;5112983;27;19934;-71
2022/07/18 01:18:25;;;;;;;;;;;26.50;99.50;;;;;;5113304;28;20011;-71
2022/07/18 01:20:51;;;;;;;;;;;26.60;99.40;;;;;;5112901;28;19903;-71
2022/07/18 01:23:17;;;;;;;;;;;26.50;99.40;;;;;;5112823;28;19914;-71
2022/07/18 01:25:43;;;;;;;;;;;26.60;99.40;;;;;;5113269;28;19903;-71
2022/07/18 01:28:09;;;;;;;;;;;26.60;99.40;;;;;;5112729;27;19926;-71
2022/07/18 01:30:35;;;;;;;;;;;26.50;99.40;;;;;;5112337;28;20006;-71
2022/07/18 01:33:02;;;;;;;;;;;26.60;99.30;;;;;;5112721;28;19931;-71
2022/07/18 01:35:28;;;;;;;;;;;26.60;99.30;;;;;;5113064;28;19957;-70
2022/07/18 01:37:55;;;;;;;;;;;26.50;99.40;;;;;;5112672;28;19911;-71
2022/07/18 01:40:21;;;;;;;;;;;26.50;99.40;;;;;;5113038;28;19904;-71
2022/07/18 01:42:47;;;;;;;;;;;26.50;99.40;;;;;;5112552;28;19903;-71
2022/07/18 01:45:14;;;;;;;;;;;26.50;99.40;;;;;;5112618;28;20363;-71
2022/07/18 01:47:40;;;;;;;;;;;26.50;99.40;;;;;;5112461;28;19927;-71
2022/07/18 01:50:07;;;;;;;;;;;26.40;99.50;;;;;;5112816;28;19908;-71
2022/07/18 01:52:33;;;;;;;;;;;26.40;99.40;;;;;;5112466;28;20317;-71
2022/07/18 01:54:59;;;;;;;;;;;26.40;99.40;;;;;;5112520;28;19994;-71
2022/07/18 01:57:25;;;;;;;;;;;26.40;99.50;;;;;;5112472;28;19910;-71
2022/07/18 01:59:50;;;;;;;;;;;26.40;99.30;;;;;;5112924;28;20336;-71
2022/07/18 02:02:16;;;;;;;;;;;26.40;99.10;;;;;;5112239;28;20267;-71
2022/07/18 02:05:00;;;;;;;;;;;26.40;99.10;;;;;;5112231;28;19939;-71
2022/07/18 02:07:27;;;;;;;;;;;26.50;98.90;;;;;;5112088;28;20003;-71
2022/07/18 02:09:53;;;;;;;;;;;26.50;98.70;;;;;;5112151;28;19904;-71
2022/07/18 02:12:19;;;;;;;;;;;26.40;98.70;;;;;;5112380;28;20002;-71
2022/07/18 02:14:45;;;;;;;;;;;26.40;98.70;;;;;;5112173;28;19907;-71
2022/07/18 02:17:11;;;;;;;;;;;26.40;98.60;;;;;;5110537;28;19916;-71
2022/07/18 02:19:37;;;;;;;;;;;26.40;98.50;;;;;;5112056;28;19903;-71
2022/07/18 02:22:03;;;;;;;;;;;26.40;98.60;;;;;;5112188;28;19953;-71
2022/07/18 02:24:28;;;;;;;;;;;26.40;98.30;;;;;;5112049;28;19943;-71
2022/07/18 02:26:54;;;;;;;;;;;26.40;98.30;;;;;;5112160;28;19903;-71
2022/07/18 02:29:20;;;;;;;;;;;26.40;98.30;;;;;;5111967;28;19930;-71
2022/07/18 02:31:46;;;;;;;;;;;26.40;98.00;;;;;;5111887;28;20019;-71
2022/07/18 02:34:12;;;;;;;;;;;26.50;97.90;;;;;;5112394;28;19943;-71
2022/07/18 02:36:38;;;;;;;;;;;26.50;97.70;;;;;;5111831;28;19915;-71
2022/07/18 02:39:05;;;;;;;;;;;26.50;97.40;;;;;;5112291;28;19904;-71
2022/07/18 02:41:31;;;;;;;;;;;26.50;97.10;;;;;;5113914;28;19907;-71
2022/07/18 02:43:57;;;;;;;;;;;26.60;97.00;;;;;;5114427;28;19968;-71
2022/07/18 02:46:23;;;;;;;;;;;26.50;96.60;;;;;;5115863;28;19904;-71
2022/07/18 02:48:48;;;;;;;;;;;26.60;96.70;;;;;;5115975;28;19910;-71
2022/07/18 02:51:14;;;;;;;;;;;26.50;96.50;;;;;;5115725;28;19908;-71
2022/07/18 02:53:40;;;;;;;;;;;26.60;96.40;;;;;;5116064;28;20002;-71
2022/07/18 02:56:06;;;;;;;;;;;26.60;96.40;;;;;;5115588;28;19923;-71
2022/07/18 02:58:32;;;;;;;;;;;26.60;96.20;;;;;;5115578;28;19911;-71
2022/07/18 03:00:58;;;;;;;;;;;26.70;96.20;;;;;;5115391;28;20010;-71
2022/07/18 03:03:24;;;;;;;;;;;26.70;95.90;;;;;;5115878;28;20286;-71
2022/07/18 03:05:50;;;;;;;;;;;26.70;95.90;;;;;;5115643;28;19903;-71
2022/07/18 03:08:16;;;;;;;;;;;26.70;96.00;;;;;;5115397;28;19904;-71
2022/07/18 03:10:42;;;;;;;;;;;26.60;96.00;;;;;;5115283;28;19908;-71
2022/07/18 03:13:07;;;;;;;;;;;26.50;96.50;;;;;;5113729;28;20363;-71
2022/07/18 03:15:33;;;;;;;;;;;26.50;96.20;;;;;;5115016;28;20312;-71
2022/07/18 03:17:59;;;;;;;;;;;26.50;96.20;;;;;;5115644;27;19943;-71
2022/07/18 03:20:27;;;;;;;;;;;26.50;96.00;;;;;;5115491;28;19923;-71
2022/07/18 03:22:52;;;;;;;;;;;26.50;96.00;;;;;;5116422;28;20313;-71
2022/07/18 03:25:18;;;;;;;;;;;26.50;95.80;;;;;;5116049;28;20355;-71
2022/07/18 03:27:44;;;;;;;;;;;26.50;95.60;;;;;;5115840;28;19904;-71
2022/07/18 03:30:10;;;;;;;;;;;26.50;95.50;;;;;;5116243;28;19910;-71
2022/07/18 03:32:36;;;;;;;;;;;26.50;95.50;;;;;;5115950;28;19958;-71
2022/07/18 03:35:02;;;;;;;;;;;26.50;95.50;;;;;;5115663;28;19903;-71
2022/07/18 03:37:28;;;;;;;;;;;26.50;95.30;;;;;;5115722;28;20418;-71
2022/07/18 03:39:54;;;;;;;;;;;26.50;95.20;;;;;;5116029;27;19914;-71
2022/07/18 03:42:20;;;;;;;;;;;26.60;95.10;;;;;;5115523;28;19904;-71
2022/07/18 03:44:46;;;;;;;;;;;26.60;95.00;;;;;;5116142;28;20370;-71
2022/07/18 03:47:12;;;;;;;;;;;26.70;94.80;;;;;;5113841;28;19904;-71
2022/07/18 03:49:37;;;;;;;;;;;26.70;94.70;;;;;;5114677;28;19930;-71
2022/07/18 03:52:03;;;;;;;;;;;26.80;94.60;;;;;;5114405;28;20267;-71
2022/07/18 03:54:29;;;;;;;;;;;26.90;94.50;;;;;;5114746;28;20212;-71
2022/07/18 03:56:55;;;;;;;;;;;26.90;94.40;;;;;;5115412;28;19903;-71
2022/07/18 03:59:21;;;;;;;;;;;26.90;94.40;;;;;;5115518;28;19903;-71
2022/07/18 04:01:47;;;;;;;;;;;26.80;94.40;;;;;;5114988;28;19915;-71
2022/07/18 04:04:13;;;;;;;;;;;26.80;94.40;;;;;;5115206;28;19947;-71
2022/07/18 04:06:39;;;;;;;;;;;26.80;94.40;;;;;;5113448;28;19904;-71
2022/07/18 04:09:05;;;;;;;;;;;26.80;94.30;;;;;;5114903;27;19904;-71
2022/07/18 04:11:30;;;;;;;;;;;26.90;94.20;;;;;;5114605;28;19919;-71
2022/07/18 04:13:56;;;;;;;;;;;26.90;94.10;;;;;;5114795;28;19915;-71
2022/07/18 04:16:22;;;;;;;;;;;26.90;93.90;;;;;;5114347;27;19916;-71
2022/07/18 04:18:49;;;;;;;;;;;27.00;93.80;;;;;;5115709;28;20359;-71
2022/07/18 04:21:15;;;;;;;;;;;27.00;93.80;;;;;;5115532;28;20344;-71
2022/07/18 04:23:41;;;;;;;;;;;27.10;93.70;;;;;;5115488;28;19904;-72
2022/07/18 04:26:07;;;;;;;;;;;27.10;93.70;;;;;;5115721;28;19911;-71
2022/07/18 04:28:33;;;;;;;;;;;27.10;93.60;;;;;;5116295;28;20395;-71
2022/07/18 04:30:59;;;;;;;;;;;27.10;93.60;;;;;;5115654;28;20350;-71
2022/07/18 04:33:25;;;;;;;;;;;27.10;93.50;;;;;;5115513;28;19904;-71
2022/07/18 04:35:51;;;;;;;;;;;27.10;93.50;;;;;;5115564;28;19911;-70
2022/07/18 04:38:16;;;;;;;;;;;27.00;93.60;;;;;;5116186;28;20067;-71
2022/07/18 04:40:42;;;;;;;;;;;27.00;93.70;;;;;;5114522;28;19957;-71
2022/07/18 04:43:08;;;;;;;;;;;27.00;93.70;;;;;;5115365;28;20448;-71
2022/07/18 04:45:34;;;;;;;;;;;27.00;93.70;;;;;;5115375;28;19904;-71
2022/07/18 04:48:01;;;;;;;;;;;27.00;93.50;;;;;;5115312;28;20287;-71
2022/07/18 04:50:29;;;;;;;;;;;27.10;93.50;;;;;;5115667;28;19907;-72
2022/07/18 04:52:55;;;;;;;;;;;27.10;93.60;;;;;;5114897;28;19947;-71
2022/07/18 04:55:22;;;;;;;;;;;27.20;93.50;;;;;;5115057;28;19994;-72
2022/07/18 04:57:48;;;;;;;;;;;27.20;93.40;;;;;;5114725;28;19903;-72
2022/07/18 05:00:15;;;;;;;;;;;27.20;93.30;;;;;;5113063;28;19986;-71
2022/07/18 05:02:42;;;;;;;;;;;27.30;93.30;;;;;;5114330;28;19939;-71
2022/07/18 05:05:09;;;;;;;;;;;27.30;93.30;;;;;;5113404;28;19904;-70
2022/07/18 05:07:35;;;;;;;;;;;27.30;93.10;;;;;;5114021;28;20275;-70
2022/07/18 05:10:03;;;;;;;;;;;27.50;93.00;;;;;;5112810;28;19904;-70
2022/07/18 05:12:29;;;;;;;;;;;27.90;92.70;;;;;;5114056;28;20265;-71
2022/07/18 05:14:55;;;;;;;;;;;29.10;91.30;;;;;;5114187;28;20061;-72
2022/07/18 05:17:21;;;;;;;;;;;30.40;89.60;;;;;;5113510;28;20271;-71
2022/07/18 05:19:47;;;;;;;;;;;31.80;86.10;;;;;;5114024;28;20283;-71
2022/07/18 05:22:13;;;;;;;;;;;32.70;83.40;;;;;;5113795;28;19903;-71
2022/07/18 05:24:38;;;;;;;;;;;33.60;80.90;;;;;;5113490;28;19903;-71
2022/07/18 05:27:04;;;;;;;;;;;34.00;79.00;;;;;;5113754;28;19904;-72
2022/07/18 05:29:30;;;;;;;;;;;35.00;76.50;;;;;;5113708;28;19957;-71
2022/07/18 05:31:56;;;;;;;;;;;35.90;75.00;;;;;;5113812;28;19907;-71
2022/07/18 05:34:22;;;;;;;;;;;36.70;72.00;;;;;;5113545;28;19914;-72
2022/07/18 05:36:48;;;;;;;;;;;37.90;68.90;;;;;;5114112;28;19996;-72
2022/07/18 05:39:13;;;;;;;;;;;38.60;67.30;;;;;;5113589;28;19904;-71
2022/07/18 05:41:39;;;;;;;;;;;39.00;66.30;;;;;;5111923;28;19904;-71
2022/07/18 05:44:05;;;;;;;;;;;39.60;64.20;;;;;;5113494;28;19968;-72
2022/07/18 05:46:31;;;;;;;;;;;40.40;62.80;;;;;;5113649;28;20328;-72
2022/07/18 05:48:57;;;;;;;;;;;41.70;60.90;;;;;;5112681;28;20345;-72
2022/07/18 05:51:23;;;;;;;;;;;43.00;59.10;;;;;;5112438;28;19918;-72
2022/07/18 05:53:49;;;;;;;;;;;44.10;57.50;;;;;;5112722;28;20340;-72
2022/07/18 05:56:15;;;;;;;;;;;45.10;56.00;;;;;;5112367;28;20006;-72
2022/07/18 05:58:41;;;;;;;;;;;45.80;54.50;;;;;;5112717;28;19960;-72
2022/07/18 06:01:08;;;;;;;;;;;46.30;53.40;;;;;;5113301;28;19908;-72
2022/07/18 06:03:33;;;;;;;;;;;46.80;52.40;;;;;;5112788;28;19998;-72
2022/07/18 06:05:59;;;;;;;;;;;47.00;51.70;;;;;;5112518;28;19939;-72
2022/07/18 06:08:25;;;;;;;;;;;47.10;51.40;;;;;;5110956;28;19937;-72
2022/07/18 06:10:51;;;;;;;;;;;47.50;49.90;;;;;;5112737;28;19926;-73
2022/07/18 06:13:17;;;;;;;;;;;47.80;49.20;;;;;;5112501;28;20237;-72
2022/07/18 06:15:42;;;;;;;;;;;48.20;48.50;;;;;;5114006;28;19998;-72
2022/07/18 06:18:08;;;;;;;;;;;48.30;48.10;;;;;;5120125;28;20247;-73
2022/07/18 06:20:34;;;;;;;;;;;48.20;47.40;;;;;;5120301;28;20193;-72
2022/07/18 06:23:00;;;;;;;;;;;48.50;46.50;;;;;;5119839;28;19903;-73
2022/07/18 06:25:26;;;;;;;;;;;48.60;46.10;;;;;;5119929;28;19904;-71
2022/07/18 06:27:52;;;;;;;;;;;49.10;45.90;;;;;;5119596;27;19903;-71
2022/07/18 06:30:18;;;;;;;;;;;49.20;45.40;;;;;;5119744;27;19916;-71
2022/07/18 06:32:44;;;;;;;;;;;49.00;45.30;;;;;;5119676;28;19912;-71
2022/07/18 06:35:10;;;;;;;;;;;49.20;44.90;;;;;;5119524;27;19903;-72
2022/07/18 06:37:37;;;;;;;;;;;48.80;44.80;;;;;;5119513;27;19904;-71
2022/07/18 06:40:03;;;;;;;;;;;49.30;44.80;;;;;;5119430;27;19939;-71
2022/07/18 06:42:29;;;;;;;;;;;49.30;44.30;;;;;;5117773;28;20275;-71
2022/07/18 06:44:55;;;;;;;;;;;49.20;44.20;;;;;;5119206;28;19904;-72
2022/07/18 06:47:21;;;;;;;;;;;49.40;44.20;;;;;;5119428;27;19903;-71
2022/07/18 06:49:47;;;;;;;;;;;49.50;44.00;;;;;;5119079;28;19950;-72
2022/07/18 06:52:15;;;;;;;;;;;49.30;43.80;;;;;;5117685;28;19959;-72
2022/07/18 06:54:41;;;;;;;;;;;49.40;43.80;;;;;;5119444;27;19911;-71
2022/07/18 06:57:09;;;;;;;;;;;49.60;43.50;;;;;;5119306;27;19908;-72
2022/07/18 06:59:35;;;;;;;;;;;49.60;44.00;;;;;;5119184;27;19903;-72
2022/07/18 07:02:01;;;;;;;;;;;48.50;44.40;;;;;;5119855;27;19946;-71
2022/07/18 07:04:27;;;;;;;;;;;48.50;43.90;;;;;;5119218;27;19968;-71
2022/07/18 07:06:53;;;;;;;;;;;49.00;44.10;;;;;;5119553;27;19904;-72
2022/07/18 07:09:19;;;;;;;;;;;49.80;43.70;;;;;;5119446;28;19987;-71
2022/07/18 07:11:45;;;;;;;;;;;48.00;43.00;;;;;;5119231;27;20351;-72
2022/07/18 07:14:11;;;;;;;;;;;48.10;43.90;;;;;;5117757;28;19956;-71
2022/07/18 07:16:37;;;;;;;;;;;48.40;43.80;;;;;;5118614;27;20010;-71
2022/07/18 07:19:02;;;;;;;;;;;48.20;44.00;;;;;;5119753;27;19912;-72
2022/07/18 07:21:28;;;;;;;;;;;47.70;43.80;;;;;;5119697;27;19983;-72
2022/07/18 07:23:54;;;;;;;;;;;47.00;45.10;;;;;;5119674;28;19998;-72
2022/07/18 07:26:20;;;;;;;;;;;46.40;46.30;;;;;;5119718;27;19987;-72
2022/07/18 07:28:46;;;;;;;;;;;45.60;46.90;;;;;;5115247;27;20309;-71
2022/07/18 07:31:12;;;;;;;;;;;44.30;49.80;;;;;;5116355;28;20010;-72
2022/07/18 07:33:38;;;;;;;;;;;43.30;52.00;;;;;;5115657;28;19912;-71
2022/07/18 07:36:04;;;;;;;;;;;42.10;53.30;;;;;;5116132;28;19994;-71
2022/07/18 07:38:30;;;;;;;;;;;41.20;55.10;;;;;;5115889;28;20249;-72
2022/07/18 07:40:56;;;;;;;;;;;41.10;55.80;;;;;;5115602;28;20386;-72
2022/07/18 07:43:24;;;;;;;;;;;41.00;56.60;;;;;;5115889;28;19903;-72
2022/07/18 07:45:52;;;;;;;;;;;40.50;58.50;;;;;;5115689;28;19957;-72
2022/07/18 07:48:18;;;;;;;;;;;39.90;59.50;;;;;;5115551;28;19916;-72
2022/07/18 07:50:44;;;;;;;;;;;39.60;59.60;;;;;;5114854;28;19976;-71
2022/07/18 07:53:10;;;;;;;;;;;39.20;60.40;;;;;;5114229;28;19922;-72
2022/07/18 07:55:36;;;;;;;;;;;38.70;62.10;;;;;;5113996;28;19950;-71
2022/07/18 07:58:04;;;;;;;;;;;38.60;62.30;;;;;;5114230;28;20212;-71
2022/07/18 08:00:30;;;;;;;;;;;38.60;62.60;;;;;;5114267;28;19998;-72
2022/07/18 08:02:57;;;;;;;;;;;38.20;63.60;;;;;;5114210;27;20037;-72
2022/07/18 08:05:24;;;;;;;;;;;38.30;62.60;;;;;;5114201;28;19919;-72
2022/07/18 08:07:50;;;;;;;;;;;38.30;62.40;;;;;;5114318;28;20021;-72
2022/07/18 08:10:16;;;;;;;;;;;38.50;62.70;;;;;;5113912;28;19951;-71
2022/07/18 08:12:42;;;;;;;;;;;38.40;62.00;;;;;;5112489;28;20274;-72
2022/07/18 08:15:09;;;;;;;;;;;38.50;62.60;;;;;;5114308;28;19988;-72
2022/07/18 08:17:35;;;;;;;;;;;38.50;62.80;;;;;;5114075;28;20007;-72
2022/07/18 08:20:01;;;;;;;;;;;38.40;63.60;;;;;;5113798;28;19983;-72
2022/07/18 08:22:27;;;;;;;;;;;37.90;65.20;;;;;;5113526;28;20350;-72
2022/07/18 08:24:53;;;;;;;;;;;37.60;66.40;;;;;;5114769;28;20002;-72
2022/07/18 08:27:18;;;;;;;;;;;37.40;67.00;;;;;;5114900;28;19903;-72
2022/07/18 08:29:44;;;;;;;;;;;37.70;65.20;;;;;;5114726;28;19904;-72
2022/07/18 08:32:10;;;;;;;;;;;37.90;65.40;;;;;;5115014;27;20365;-72
2022/07/18 08:34:36;;;;;;;;;;;38.00;64.10;;;;;;5114916;28;19951;-72
2022/07/18 08:37:02;;;;;;;;;;;38.00;64.80;;;;;;5114454;28;19942;-72
2022/07/18 08:39:28;;;;;;;;;;;37.90;65.30;;;;;;5114368;28;20008;-72
2022/07/18 08:41:54;;;;;;;;;;;37.60;66.30;;;;;;5114372;28;20354;-72
2022/07/18 08:44:20;;;;;;;;;;;37.40;64.50;;;;;;5114695;28;19986;-71
2022/07/18 08:46:50;;;;;;;;;;;37.30;65.70;;;;;;5112670;28;19904;-71
2022/07/18 08:49:16;;;;;;;;;;;36.90;67.60;;;;;;5114011;28;20056;-71
2022/07/18 08:51:42;;;;;;;;;;;36.80;66.90;;;;;;5114509;28;20319;-72
2022/07/18 08:54:09;;;;;;;;;;;36.60;67.20;;;;;;5113899;28;19904;-72
2022/07/18 08:56:34;;;;;;;;;;;36.80;67.40;;;;;;5113724;28;19954;-72
2022/07/18 08:59:02;;;;;;;;;;;36.90;67.50;;;;;;5114214;28;19935;-72
2022/07/18 09:01:28;;;;;;;;;;;36.90;67.40;;;;;;5113923;28;19976;-72
2022/07/18 09:06:45;;;;;;;;;;;37.10;65.30;;;;;;5113717;28;20394;-72
2022/07/18 09:09:12;;;;;;;;;;;36.50;67.10;;;;;;5113873;28;20016;-72
2022/07/18 09:11:48;;;;;;;;;;;36.50;66.90;;;;;;5114108;28;20255;-72
2022/07/18 09:14:35;;;;;;;;;;;36.60;64.80;;;;;;5113743;28;20314;-72
2022/07/18 09:17:04;;;;;;;;;;;36.50;65.20;;;;;;5113293;28;20014;-71
2022/07/18 09:19:30;;;;;;;;;;;36.50;63.30;;;;;;5113999;28;19904;-71
2022/07/18 09:22:10;;;;;;;;;;;36.60;61.60;;;;;;5114167;28;20358;-71
2022/07/18 09:25:03;;;;;;;;;;;36.80;61.30;;;;;;5113376;28;19915;-72
2022/07/18 09:27:29;;;;;;;;;;;37.00;61.50;;;;;;5109100;28;19916;-71
2022/07/18 09:30:15;;;;;;;;;;;37.00;61.00;;;;;;5113461;28;19904;-71
2022/07/18 09:32:41;;;;;;;;;;;36.60;61.30;;;;;;5111591;28;20324;-71
2022/07/18 09:35:12;;;;;;;;;;;36.40;61.70;;;;;;5113608;28;19915;-71
2022/07/18 09:37:39;;;;;;;;;;;36.20;61.70;;;;;;5113297;28;19918;-71
2022/07/18 09:40:19;;;;;;;;;;;36.00;61.70;;;;;;5111767;28;19990;-71
2022/07/18 09:42:50;;;;;;;;;;;35.70;60.30;;;;;;5113122;28;19907;-71
2022/07/18 09:45:16;;;;;;;;;;;35.50;61.40;;;;;;5113315;28;20024;-71
2022/07/18 09:47:49;;;;;;;;;;;35.20;62.20;;;;;;5113123;28;19914;-71
2022/07/18 09:50:25;;;;;;;;;;;35.30;62.70;;;;;;5112455;28;20363;-71
2022/07/18 09:53:00;;;;;;;;;;;35.60;63.20;;;;;;5113234;28;19912;-71
2022/07/18 09:55:26;;;;;;;;;;;35.80;62.90;;;;;;5112922;28;19998;-71
2022/07/18 09:57:59;;;;;;;;;;;36.00;62.40;;;;;;5112915;28;19904;-71
2022/07/18 10:00:26;;;;;;;;;;;36.10;62.70;;;;;;5112840;28;19908;-71
2022/07/18 10:02:52;;;;;;;;;;;36.10;62.10;;;;;;5112937;28;20011;-71
2022/07/18 10:05:18;;;;;;;;;;;35.60;63.30;;;;;;5112778;28;20351;-71
2022/07/18 10:07:45;;;;;;;;;;;35.60;63.90;;;;;;5112838;28;19995;-71
2022/07/18 10:10:14;;;;;;;;;;;35.80;63.90;;;;;;5112963;28;20404;-71
2022/07/18 10:12:40;;;;;;;;;;;35.70;64.60;;;;;;5112926;28;19918;-71
2022/07/18 10:15:06;;;;;;;;;;;35.90;63.70;;;;;;5112430;28;20011;-71
2022/07/18 10:17:33;;;;;;;;;;;35.90;63.10;;;;;;5112931;28;19912;-71
2022/07/18 10:20:05;;;;;;;;;;;36.00;62.60;;;;;;5112743;28;20028;-71
2022/07/18 10:22:41;;;;;;;;;;;36.00;61.90;;;;;;5113135;28;19994;-72
2022/07/18 10:25:08;;;;;;;;;;;35.90;61.50;;;;;;5112757;28;19914;-71
2022/07/18 10:27:52;;;;;;;;;;;35.50;63.40;;;;;;5111596;28;19911;-71
2022/07/18 10:30:29;;;;;;;;;;;35.30;63.50;;;;;;5112692;28;20275;-71
2022/07/18 10:32:55;;;;;;;;;;;35.00;65.20;;;;;;5112589;28;19912;-71
2022/07/18 10:35:41;;;;;;;;;;;35.10;66.30;;;;;;5112768;28;19910;-72
2022/07/18 10:38:20;;;;;;;;;;;35.20;65.90;;;;;;5112820;28;20320;-72
2022/07/18 10:41:06;;;;;;;;;;;35.30;65.70;;;;;;5113217;28;19998;-72
2022/07/18 10:43:33;;;;;;;;;;;34.70;67.60;;;;;;5145174;27;19908;-73
2022/07/18 10:45:59;;;;;;;;;;;34.80;68.50;;;;;;5111384;28;19923;-73
2022/07/18 10:48:37;;;;;;;;;;;34.80;67.80;;;;;;5112956;28;19925;-73
2022/07/18 10:51:07;;;;;;;;;;;34.90;69.60;;;;;;5112727;28;20010;-73
2022/07/18 10:53:51;;;;;;;;;;;35.00;68.90;;;;;;5111986;28;19919;-73
2022/07/18 10:56:17;;;;;;;;;;;35.20;68.80;;;;;;5111873;28;19904;-72
2022/07/18 10:58:43;;;;;;;;;;;34.90;68.90;;;;;;5111814;28;19914;-71
2022/07/18 11:01:16;;;;;;;;;;;35.10;68.30;;;;;;5111869;28;19904;-73
2022/07/18 11:03:42;;;;;;;;;;;35.30;67.60;;;;;;5114606;28;19956;-73
2022/07/18 11:06:08;;;;;;;;;;;35.30;69.20;;;;;;5116032;28;19915;-72
2022/07/18 11:08:34;;;;;;;;;;;35.10;69.40;;;;;;5116167;28;19903;-72
2022/07/18 11:11:04;;;;;;;;;;;35.10;70.10;;;;;;5116222;28;19987;-73
2022/07/18 11:13:37;;;;;;;;;;;35.00;69.40;;;;;;5115919;28;19972;-73
2022/07/18 11:16:06;;;;;;;;;;;35.00;70.20;;;;;;5115924;28;20448;-73
2022/07/18 11:18:33;;;;;;;;;;;35.00;71.20;;;;;;5116489;27;20329;-73
2022/07/18 11:20:59;;;;;;;;;;;34.90;69.70;;;;;;5116724;28;19943;-73
2022/07/18 11:23:26;;;;;;;;;;;35.10;69.70;;;;;;5115052;28;19949;-74
2022/07/18 11:25:54;;;;;;;;;;;35.10;69.50;;;;;;5116447;28;19905;-73
2022/07/18 11:28:20;;;;;;;;;;;35.20;71.10;;;;;;5116291;28;19910;-73
2022/07/18 11:30:58;;;;;;;;;;;35.10;69.00;;;;;;5116234;28;20311;-73
2022/07/18 11:33:25;;;;;;;;;;;35.30;70.90;;;;;;5116386;28;20018;-71
2022/07/18 11:35:51;;;;;;;;;;;35.20;70.90;;;;;;5115918;28;19994;-71
2022/07/18 11:38:17;;;;;;;;;;;35.10;72.00;;;;;;5116262;28;19903;-71
2022/07/18 11:40:47;;;;;;;;;;;35.10;70.80;;;;;;5115968;28;19912;-71
2022/07/18 11:43:19;;;;;;;;;;;35.00;70.80;;;;;;5115906;28;20297;-71
2022/07/18 11:45:44;;;;;;;;;;;35.10;68.90;;;;;;5115719;28;19956;-71
2022/07/18 11:48:10;;;;;;;;;;;35.10;68.40;;;;;;5116005;28;19911;-71
2022/07/18 11:50:37;;;;;;;;;;;35.00;69.80;;;;;;5115474;28;19903;-71
2022/07/18 11:53:03;;;;;;;;;;;35.10;67.90;;;;;;5115443;28;19964;-71
2022/07/18 11:55:36;;;;;;;;;;;35.10;64.90;;;;;;5115201;28;20288;-71
2022/07/18 11:58:09;;;;;;;;;;;35.20;64.90;;;;;;5115468;28;19946;-71
2022/07/18 12:00:35;;;;;;;;;;;35.30;64.50;;;;;;5114888;28;19903;-71
2022/07/18 12:03:09;;;;;;;;;;;35.40;65.40;;;;;;5114979;28;19911;-71
2022/07/18 12:05:39;;;;;;;;;;;35.40;64.20;;;;;;5115178;28;19904;-71
2022/07/18 12:08:23;;;;;;;;;;;35.50;62.80;;;;;;5115402;28;19904;-72
2022/07/18 12:11:07;;;;;;;;;;;35.30;61.70;;;;;;5115184;28;19987;-71
2022/07/18 12:13:46;;;;;;;;;;;35.40;62.90;;;;;;5114311;28;19911;-71
2022/07/18 12:16:25;;;;;;;;;;;35.50;65.20;;;;;;5114762;28;19962;-71
2022/07/18 12:18:52;;;;;;;;;;;35.40;67.20;;;;;;5115117;28;19904;-71
2022/07/18 12:21:18;;;;;;;;;;;35.10;63.80;;;;;;5115206;28;19908;-71
2022/07/18 12:23:44;;;;;;;;;;;35.10;65.70;;;;;;5115268;27;19904;-71
2022/07/18 12:26:25;;;;;;;;;;;35.20;68.10;;;;;;5115050;28;20266;-71
2022/07/18 12:29:03;;;;;;;;;;;35.20;69.60;;;;;;5115538;28;19904;-71
2022/07/18 12:31:39;;;;;;;;;;;34.90;70.20;;;;;;5115233;28;20344;-72
2022/07/18 12:34:12;;;;;;;;;;;34.90;70.70;;;;;;5113920;28;19908;-71
2022/07/18 12:36:53;;;;;;;;;;;35.00;70.80;;;;;;5115623;28;20446;-72
2022/07/18 12:39:29;;;;;;;;;;;35.20;70.90;;;;;;5115069;28;19938;-71
2022/07/18 12:41:55;;;;;;;;;;;35.30;72.10;;;;;;5115317;28;19953;-71
2022/07/18 12:44:21;;;;;;;;;;;35.40;70.10;;;;;;5114680;28;19968;-71
2022/07/18 12:46:47;;;;;;;;;;;35.60;70.80;;;;;;5114597;28;19908;-71
2022/07/18 12:49:13;;;;;;;;;;;35.60;71.10;;;;;;5113165;28;20305;-71
2022/07/18 12:51:39;;;;;;;;;;;35.60;70.80;;;;;;5114464;28;20296;-72
2022/07/18 12:54:05;;;;;;;;;;;35.40;69.60;;;;;;5114470;28;20056;-71
2022/07/18 12:56:31;;;;;;;;;;;35.30;71.90;;;;;;5114599;28;19961;-72
2022/07/18 12:58:57;;;;;;;;;;;35.10;73.00;;;;;;5113763;28;19970;-71
2022/07/18 13:01:23;;;;;;;;;;;35.20;72.70;;;;;;5114573;28;19908;-72
2022/07/18 13:03:49;;;;;;;;;;;35.00;74.20;;;;;;5114223;28;19903;-71
2022/07/18 13:06:15;;;;;;;;;;;35.00;72.60;;;;;;5114225;28;19904;-72
2022/07/18 13:08:41;;;;;;;;;;;34.90;71.00;;;;;;5114263;28;19990;-72
2022/07/18 13:11:06;;;;;;;;;;;35.00;71.70;;;;;;5114720;28;19910;-71
2022/07/18 13:13:32;;;;;;;;;;;35.20;72.60;;;;;;5114214;28;19912;-72
2022/07/18 13:15:58;;;;;;;;;;;35.30;72.90;;;;;;5114021;28;19919;-72
2022/07/18 13:18:24;;;;;;;;;;;35.50;72.20;;;;;;5114663;28;19904;-72
2022/07/18 13:20:50;;;;;;;;;;;35.60;72.30;;;;;;5114323;28;19943;-72
2022/07/18 13:23:16;;;;;;;;;;;35.40;72.60;;;;;;5114112;28;19904;-72
2022/07/18 13:25:42;;;;;;;;;;;35.50;71.10;;;;;;5113288;28;19904;-72
2022/07/18 13:28:08;;;;;;;;;;;35.40;69.40;;;;;;5114112;28;20355;-71
2022/07/18 13:30:34;;;;;;;;;;;35.40;72.30;;;;;;5112753;28;19911;-72
2022/07/18 13:33:00;;;;;;;;;;;35.40;74.60;;;;;;5114613;28;20301;-72
2022/07/18 13:35:26;;;;;;;;;;;35.40;73.50;;;;;;5114273;28;19904;-72
2022/07/18 13:37:52;;;;;;;;;;;35.40;73.10;;;;;;5114220;28;20245;-71
2022/07/18 13:40:18;;;;;;;;;;;35.40;74.30;;;;;;5114370;28;19986;-72
2022/07/18 13:42:44;;;;;;;;;;;35.30;75.70;;;;;;5114785;28;19998;-72
2022/07/18 13:45:12;;;;;;;;;;;35.40;74.40;;;;;;5112715;28;19947;-72
2022/07/18 13:47:38;;;;;;;;;;;35.30;73.80;;;;;;5114377;28;20006;-72
2022/07/18 13:50:06;;;;;;;;;;;35.40;74.70;;;;;;5114070;28;19951;-72
2022/07/18 13:52:31;;;;;;;;;;;35.50;75.40;;;;;;5114036;28;19959;-72
2022/07/18 13:54:57;;;;;;;;;;;35.50;75.90;;;;;;5113940;28;19911;-72
2022/07/18 13:57:23;;;;;;;;;;;35.50;76.90;;;;;;5113893;28;19903;-72
2022/07/18 13:59:49;;;;;;;;;;;35.20;75.50;;;;;;5113750;28;19903;-72
2022/07/18 14:02:15;;;;;;;;;;;35.30;74.30;;;;;;5113526;28;19963;-72
2022/07/18 14:04:41;;;;;;;;;;;35.40;72.20;;;;;;5112739;28;19990;-72
2022/07/18 14:07:07;;;;;;;;;;;35.30;73.00;;;;;;5112557;28;19911;-72
2022/07/18 14:09:33;;;;;;;;;;;35.10;70.50;;;;;;5111074;28;19910;-72
2022/07/18 14:11:59;;;;;;;;;;;34.90;74.00;;;;;;5112871;28;19920;-72
2022/07/18 14:14:25;;;;;;;;;;;34.80;78.50;;;;;;5112716;28;20061;-72
2022/07/18 14:16:52;;;;;;;;;;;34.80;77.80;;;;;;5112476;28;20307;-72
2022/07/18 14:19:19;;;;;;;;;;;34.90;79.20;;;;;;5112773;28;19904;-72
2022/07/18 14:21:45;;;;;;;;;;;35.00;79.50;;;;;;5112716;28;19908;-72